1859 NOT_NAMED (1859335S05091)


IBTrACS version v04r00. Visit IBTrACS website for data access.
Please direct all questions to the IBTrACS Q and A forum

Storm track - Intensity - Wind Radii - Intensity Data - Source Data - All data

Summary Information

Storm ID 1859335S05091
Start Dec 1 06Z
End Dec 7 06Z
ATCF IDs
Track status Best track data.

Storm track plot

Map of storm track

Intensity plots

No Intensity information for this storm


Radial wind information

No radial wind information for this storm


Position and Intensity Table

BASIN ISO_TIME_________ NATURE LAT LON
degrees north degrees east
SI 1859-12-01 06:00:00 NR -4.60 90.70
SI 09:00:00 NR -4.61 90.63
SI 12:00:00 NR -4.62 90.55
SI 15:00:00 NR -4.66 90.46
SI 18:00:00 NR -4.73 90.35
SI 21:00:00 NR -4.83 90.21
SI 1859-12-02 00:00:00 NR -4.99 90.05
SI 03:00:00 NR -5.21 89.85
SI 06:00:00 NR -5.50 89.60
SI 09:00:00 NR -5.87 89.31
SI 12:00:00 NR -6.31 88.98
SI 15:00:00 NR -6.81 88.61
SI 18:00:00 NR -7.36 88.23
SI 21:00:00 NR -7.95 87.84
SI 1859-12-03 00:00:00 NR -8.58 87.45
SI 03:00:00 NR -9.23 87.06
SI 06:00:00 NR -9.90 86.70
SI 09:00:00 NR -10.58 86.34
SI 12:00:00 NR -11.29 85.99
SI 15:00:00 NR -12.01 85.66
SI 18:00:00 NR -12.74 85.35
SI 21:00:00 NR -13.45 85.07
SI 1859-12-04 00:00:00 NR -14.15 84.83
SI 03:00:00 NR -14.80 84.64
SI 06:00:00 NR -15.40 84.50
SI 09:00:00 NR -15.92 84.42
SI 12:00:00 NR -16.38 84.39
SI 15:00:00 NR -16.81 84.41
SI 18:00:00 NR -17.21 84.47
SI 21:00:00 NR -17.58 84.57
SI 1859-12-05 00:00:00 NR -17.93 84.69
SI 03:00:00 NR -18.27 84.84
SI 06:00:00 NR -18.60 85.00
SI 09:00:00 NR -18.99 85.15
SI 12:00:00 NR -19.36 85.33
SI 15:00:00 NR -19.73 85.52
SI 18:00:00 NR -20.09 85.72
SI 21:00:00 NR -20.42 85.92
SI 1859-12-06 00:00:00 NR -20.74 86.13
SI 03:00:00 NR -21.03 86.32
SI 06:00:00 NR -21.30 86.50
SI 09:00:00 NR -21.54 86.66
SI 12:00:00 NR -21.75 86.80
SI 15:00:00 NR -21.94 86.93
SI 18:00:00 NR -22.12 87.04
SI 21:00:00 NR -22.28 87.14
SI 1859-12-07 00:00:00 NR -22.42 87.23
SI 03:00:00 NR -22.56 87.32
SI 06:00:00 NR -22.70 87.40

Source Information

Agency Information
USA
TOKYO
CMA
HKO
NEWDELHI
REUNION WMO-Best-Tracks.txt:Line=229:xxxx859035
BOM
NADI
WELLINGTON
DS824
TD9636
TD9635
NEUMANN
MLC

All available IBTrACS Data

SEASON BASIN SUBBASIN ISO_TIME_________ NATURE LAT LON DIST2LAND LANDFALL IFLAG USA SSHS REUNION LAT REUNION LON REUNION TYPE REUNION TNUM STORM SPEED STORM DIR
Year degrees north degrees east km km 1 degrees north degrees east 1 kts degrees
1860 SI WA 1859-12-01 06:00:00 NR -4.60 90.70 957 957 _____O________ -1 -4.60 90.70 99 9.90 1 265
1860 SI WA 09:00:00 NR -4.61 90.63 967 967 _____P________ -1 -4.61 90.63 99 2 261
1860 SI WA 12:00:00 NR -4.62 90.55 977 977 _____P________ -1 -4.62 90.55 99 2 253
1860 SI WA 15:00:00 NR -4.66 90.46 982 982 _____P________ -1 -4.66 90.46 99 2 243
1860 SI WA 18:00:00 NR -4.73 90.35 1002 1002 _____P________ -1 -4.73 90.35 99 3 234
1860 SI WA 21:00:00 NR -4.83 90.21 1017 1017 _____P________ -1 -4.83 90.21 99 4 228
1860 SI WA 1859-12-02 00:00:00 NR -4.99 90.05 1046 1046 _____P________ -1 -4.99 90.05 99 5 224
1860 SI MM 03:00:00 NR -5.21 89.85 1075 1075 _____P________ -1 -5.21 89.85 99 7 221
1860 SI MM 06:00:00 NR -5.50 89.60 1109 1109 _____O________ -1 -5.50 89.60 99 9.90 9 219
1860 SI MM 09:00:00 NR -5.87 89.31 1159 1159 _____P________ -1 -5.87 89.31 99 10 218
1860 SI MM 12:00:00 NR -6.31 88.98 1209 1209 _____P________ -1 -6.31 88.98 99 12 216
1860 SI MM 15:00:00 NR -6.81 88.61 1275 1275 _____P________ -1 -6.81 88.61 99 13 215
1860 SI MM 18:00:00 NR -7.36 88.23 1346 1346 _____P________ -1 -7.36 88.23 99 14 214
1860 SI MM 21:00:00 NR -7.95 87.84 1418 1418 _____P________ -1 -7.95 87.84 99 15 212
1860 SI MM 1859-12-03 00:00:00 NR -8.58 87.45 1490 1490 _____P________ -1 -8.58 87.45 99 15 211
1860 SI MM 03:00:00 NR -9.23 87.06 1553 1553 _____P________ -1 -9.23 87.06 99 15 209
1860 SI MM 06:00:00 NR -9.90 86.70 1632 1632 _____O________ -1 -9.90 86.70 99 9.90 15 208
1860 SI MM 09:00:00 NR -10.58 86.34 1713 1713 _____P________ -1 -10.58 86.34 99 16 207
1860 SI MM 12:00:00 NR -11.29 85.99 1785 1785 _____P________ -1 -11.29 85.99 99 16 205
1860 SI MM 15:00:00 NR -12.01 85.66 1858 1858 _____P________ -1 -12.01 85.66 99 16 203
1860 SI MM 18:00:00 NR -12.74 85.35 1932 1932 _____P________ -1 -12.74 85.35 99 16 202
1860 SI MM 21:00:00 NR -13.45 85.07 2014 2014 _____P________ -1 -13.45 85.07 99 15 200
1860 SI MM 1859-12-04 00:00:00 NR -14.15 84.83 2082 2082 _____P________ -1 -14.15 84.83 99 14 197
1860 SI MM 03:00:00 NR -14.80 84.64 2149 2149 _____P________ -1 -14.80 84.64 99 13 194
1860 SI MM 06:00:00 NR -15.40 84.50 2203 2203 _____O________ -1 -15.40 84.50 99 9.90 11 191
1860 SI MM 09:00:00 NR -15.92 84.42 2249 2249 _____P________ -1 -15.92 84.42 99 10 186
1860 SI MM 12:00:00 NR -16.38 84.39 2288 2288 _____P________ -1 -16.38 84.39 99 9 182
1860 SI MM 15:00:00 NR -16.81 84.41 2319 2319 _____P________ -1 -16.81 84.41 99 8 174
1860 SI MM 18:00:00 NR -17.21 84.47 2344 2344 _____P________ -1 -17.21 84.47 99 8 169
1860 SI MM 21:00:00 NR -17.58 84.57 2369 2369 _____P________ -1 -17.58 84.57 99 8 164
1860 SI MM 1859-12-05 00:00:00 NR -17.93 84.69 2387 2387 _____P________ -1 -17.93 84.69 99 7 159
1860 SI MM 03:00:00 NR -18.27 84.84 2413 2406 _____P________ -1 -18.27 84.84 99 7 156
1860 SI MM 06:00:00 NR -18.60 85.00 2425 2425 _____O________ -1 -18.60 85.00 99 9.90 8 158
1860 SI MM 09:00:00 NR -18.99 85.15 2446 2446 _____P________ -1 -18.99 85.15 99 8 158
1860 SI MM 12:00:00 NR -19.36 85.33 2474 2467 _____P________ -1 -19.36 85.33 99 8 155
1860 SI MM 15:00:00 NR -19.73 85.52 2487 2487 _____P________ -1 -19.73 85.52 99 8 153
1860 SI MM 18:00:00 NR -20.09 85.72 2511 2504 _____P________ -1 -20.09 85.72 99 8 151
1860 SI MM 21:00:00 NR -20.42 85.92 2525 2525 _____P________ -1 -20.42 85.92 99 8 150
1860 SI MM 1859-12-06 00:00:00 NR -20.74 86.13 2541 2541 _____P________ -1 -20.74 86.13 99 7 149
1860 SI MM 03:00:00 NR -21.03 86.32 2557 2557 _____P________ -1 -21.03 86.32 99 7 148
1860 SI MM 06:00:00 NR -21.30 86.50 2573 2573 _____O________ -1 -21.30 86.50 99 9.90 6 148
1860 SI MM 09:00:00 NR -21.54 86.66 2581 2581 _____P________ -1 -21.54 86.66 99 5 148
1860 SI MM 12:00:00 NR -21.75 86.80 2593 2584 _____P________ -1 -21.75 86.80 99 5 148
1860 SI MM 15:00:00 NR -21.94 86.93 2591 2590 _____P________ -1 -21.94 86.93 99 4 149
1860 SI MM 18:00:00 NR -22.12 87.04 2597 2589 _____P________ -1 -22.12 87.04 99 4 149
1860 SI MM 21:00:00 NR -22.28 87.14 2603 2595 _____P________ -1 -22.28 87.14 99 4 150
1860 SI MM 1859-12-07 00:00:00 NR -22.42 87.23 2602 2601 _____P________ -1 -22.42 87.23 99 3 150
1860 SI MM 03:00:00 NR -22.56 87.32 2608 2601 _____P________ -1 -22.56 87.32 99 3 150
1860 SI MM 06:00:00 NR -22.70 87.40 2608 _____O________ -1 -22.70 87.40 99 9.90 3 150